createdAt,value
2022-08-16T00:02:11.973Z,8.07
2022-08-16T00:04:41.065Z,8.43
2022-08-16T00:07:08.225Z,9.90
2022-08-16T00:09:37.558Z,11.10
2022-08-16T00:12:09.180Z,7.93
2022-08-16T00:14:36.478Z,7.97
2022-08-16T00:17:18.620Z,10.65
2022-08-16T00:19:47.494Z,8.98
2022-08-16T00:22:20.982Z,8.50
2022-08-16T00:24:52.890Z,10.68
2022-08-16T00:27:21.671Z,7.82
2022-08-16T00:30:00.601Z,7.63
2022-08-16T00:32:32.680Z,10.40
2022-08-16T00:35:01.773Z,8.85
2022-08-16T00:37:57.951Z,10.05
2022-08-16T00:40:33.299Z,8.85
2022-08-16T00:43:01.338Z,9.48
2022-08-16T00:45:35.536Z,5.97
2022-08-16T00:48:31.311Z,9.30
2022-08-16T00:50:55.540Z,8.38
2022-08-16T00:53:23.128Z,9.32
2022-08-16T00:55:52.646Z,7.20
2022-08-16T00:58:34.586Z,9.10
2022-08-16T01:01:02.568Z,7.03
2022-08-16T01:03:31.739Z,9.15
2022-08-16T01:06:40.498Z,10.85
2022-08-16T01:08:51.994Z,10.05
2022-08-16T01:11:20.025Z,10.13
2022-08-16T01:13:49.603Z,10.30
2022-08-16T01:16:22.434Z,8.23
2022-08-16T01:18:59.665Z,7.82
2022-08-16T01:21:33.822Z,9.32
2022-08-16T01:24:02.293Z,10.27
2022-08-16T01:26:34.333Z,8.50
2022-08-16T01:29:06.122Z,9.52
2022-08-16T01:31:42.527Z,11.90
2022-08-16T01:34:23.230Z,9.95
2022-08-16T01:37:03.364Z,10.38
2022-08-16T01:39:31.748Z,12.25
2022-08-16T01:42:04.584Z,11.20
2022-08-16T01:44:40.202Z,11.88
2022-08-16T01:47:08.111Z,8.65
2022-08-16T01:49:45.431Z,11.18
2022-08-16T01:52:29.549Z,7.03
2022-08-16T01:54:57.886Z,8.10
2022-08-16T01:57:26.869Z,11.35
2022-08-16T01:59:54.968Z,9.60
2022-08-16T02:02:28.531Z,8.60
2022-08-16T02:04:57.487Z,9.50
2022-08-16T02:07:25.457Z,11.32
2022-08-16T02:09:58.725Z,9.15
2022-08-16T02:12:45.868Z,8.05
2022-08-16T02:15:25.293Z,9.38
2022-08-16T02:17:53.460Z,10.38
2022-08-16T02:20:26.263Z,10.30
2022-08-16T02:22:55.340Z,12.20
2022-08-16T02:25:24.239Z,8.30
2022-08-16T02:27:51.931Z,10.30
2022-08-16T02:30:37.964Z,7.63
2022-08-16T02:33:10.246Z,9.90
2022-08-16T02:35:49.892Z,8.38
2022-08-16T02:38:23.066Z,10.35
2022-08-16T02:40:51.650Z,10.02
2022-08-16T02:43:21.713Z,13.00
2022-08-16T02:45:54.722Z,10.63
2022-08-16T02:48:29.966Z,9.20
2022-08-16T02:51:06.625Z,11.07
2022-08-16T02:53:43.227Z,13.65
2022-08-16T02:56:14.851Z,11.10
2022-08-16T02:58:44.118Z,10.98
2022-08-16T03:01:15.220Z,10.80
2022-08-16T03:04:39.374Z,7.68
2022-08-16T03:06:42.264Z,9.95
2022-08-16T03:09:13.827Z,11.95
2022-08-16T03:11:42.353Z,12.35
2022-08-16T03:14:11.389Z,10.70
2022-08-16T03:16:42.207Z,9.35
2022-08-16T03:19:26.947Z,9.35
2022-08-16T03:22:19.355Z,10.98
2022-08-16T03:24:57.342Z,9.98
2022-08-16T03:27:25.286Z,10.27
2022-08-16T03:29:58.605Z,8.10
2022-08-16T03:32:26.224Z,8.60
2022-08-16T03:34:53.491Z,8.43
2022-08-16T03:37:20.703Z,10.05
2022-08-16T03:39:48.150Z,9.75
2022-08-16T03:42:23.786Z,10.20
2022-08-16T03:44:51.232Z,8.48
2022-08-16T03:47:30.419Z,10.20
2022-08-16T03:50:02.923Z,7.78
2022-08-16T03:52:31.499Z,11.02
2022-08-16T03:54:59.462Z,9.48
2022-08-16T03:57:32.045Z,8.02
2022-08-16T04:00:35.566Z,10.43
2022-08-16T04:03:07.154Z,9.40
2022-08-16T04:05:39.631Z,11.50
2022-08-16T04:08:23.711Z,8.75
2022-08-16T04:10:52.807Z,10.02
2022-08-16T04:13:58.710Z,12.10
2022-08-16T04:16:07.921Z,15.65
2022-08-16T04:18:42.781Z,10.05
2022-08-16T04:21:13.414Z,9.50
2022-08-16T04:23:56.925Z,10.35
2022-08-16T04:26:24.102Z,9.63
2022-08-16T04:29:21.626Z,9.13
2022-08-16T04:31:45.876Z,8.77
2022-08-16T04:34:14.734Z,10.90
2022-08-16T04:36:43.765Z,7.97
2022-08-16T04:39:16.350Z,11.15
2022-08-16T04:41:44.041Z,12.35
2022-08-16T04:44:30.970Z,13.60
2022-08-16T04:47:01.128Z,11.07
2022-08-16T04:49:38.555Z,11.38
2022-08-16T04:52:33.294Z,11.65
2022-08-16T04:55:00.886Z,10.23
2022-08-16T04:57:30.651Z,12.43
2022-08-16T04:59:57.959Z,9.23
2022-08-16T05:02:41.606Z,12.05
2022-08-16T05:05:17.248Z,12.68
2022-08-16T05:07:57.886Z,10.00
2022-08-16T05:10:27.288Z,10.52
2022-08-16T05:12:54.690Z,13.05
2022-08-16T05:15:23.943Z,9.48
2022-08-16T05:17:58.432Z,9.23
2022-08-16T05:20:39.566Z,14.30
2022-08-16T05:23:15.126Z,10.95
2022-08-16T05:25:48.779Z,10.40
2022-08-16T05:28:17.539Z,11.73
2022-08-16T05:30:45.606Z,13.27
2022-08-16T05:33:18.433Z,9.55
2022-08-16T05:35:55.426Z,11.60
2022-08-16T05:38:32.427Z,12.38
2022-08-16T05:41:07.212Z,10.70
2022-08-16T05:43:43.246Z,8.55
2022-08-16T05:46:28.777Z,9.32
2022-08-16T05:49:03.763Z,10.32
2022-08-16T05:51:37.691Z,6.32
2022-08-16T05:54:11.193Z,11.35
2022-08-16T05:56:39.426Z,12.77
2022-08-16T05:59:08.164Z,10.20
2022-08-16T06:01:38.971Z,10.40
2022-08-16T06:04:13.672Z,10.13
2022-08-16T06:06:56.024Z,10.35
2022-08-16T06:09:24.065Z,13.48
2022-08-16T06:11:51.489Z,12.50
2022-08-16T06:14:19.257Z,12.90
2022-08-16T06:16:50.888Z,9.75
2022-08-16T06:19:18.505Z,11.10
2022-08-16T06:21:48.040Z,11.77
2022-08-16T06:24:54.955Z,14.15
2022-08-16T06:27:09.929Z,12.20
2022-08-16T06:29:37.586Z,13.45
2022-08-16T06:32:05.291Z,12.70
2022-08-16T06:34:56.872Z,14.43
2022-08-16T06:37:23.567Z,12.77
2022-08-16T06:39:50.903Z,16.20
2022-08-16T06:42:19.014Z,13.68
2022-08-16T06:44:46.811Z,13.68
2022-08-16T06:47:17.029Z,13.93
2022-08-16T06:49:52.522Z,14.75
2022-08-16T06:52:55.510Z,13.90
2022-08-16T06:55:12.932Z,10.38
2022-08-16T06:57:41.334Z,11.52
2022-08-16T07:00:24.229Z,13.77
2022-08-16T07:02:53.919Z,10.75
2022-08-16T07:05:27.368Z,16.63
2022-08-16T07:08:11.718Z,15.65
2022-08-16T07:10:41.525Z,15.02
2022-08-16T07:13:12.803Z,14.00
2022-08-16T07:15:50.791Z,18.17
2022-08-16T07:18:21.615Z,20.05
2022-08-16T07:20:53.938Z,18.15
2022-08-16T07:23:37.359Z,14.02
2022-08-16T07:26:08.851Z,15.43
2022-08-16T07:28:36.746Z,16.00
2022-08-16T07:31:05.045Z,15.93
2022-08-16T07:33:52.524Z,16.13
2022-08-16T07:36:22.723Z,13.32
2022-08-16T07:38:50.719Z,14.50
2022-08-16T07:41:18.612Z,14.02
2022-08-16T07:43:47.577Z,10.98
2022-08-16T07:46:38.500Z,16.20
2022-08-16T07:49:03.164Z,13.07
2022-08-16T07:51:37.134Z,14.13
2022-08-16T07:54:10.174Z,14.05
2022-08-16T07:56:38.571Z,18.40
2022-08-16T07:59:06.944Z,14.15
2022-08-16T08:01:35.125Z,18.52
2022-08-16T08:04:03.970Z,17.17
2022-08-16T08:06:32.840Z,16.10
2022-08-16T08:09:00.510Z,18.17
2022-08-16T08:11:28.852Z,15.05
2022-08-16T08:13:57.535Z,10.70
2022-08-16T08:16:31.266Z,13.82
2022-08-16T08:19:00.900Z,16.75
2022-08-16T08:21:59.667Z,14.57
2022-08-16T08:24:17.728Z,11.10
2022-08-16T08:26:50.100Z,11.57
2022-08-16T08:29:22.988Z,13.05
2022-08-16T08:31:52.015Z,15.00
2022-08-16T08:34:21.245Z,13.50
2022-08-16T08:36:54.049Z,13.38
2022-08-16T08:39:21.998Z,13.70
2022-08-16T08:41:51.265Z,8.35
2022-08-16T08:44:28.426Z,10.05
2022-08-16T08:46:59.639Z,9.55
2022-08-16T08:49:50.737Z,10.77
2022-08-16T08:52:34.497Z,8.68
2022-08-16T08:55:10.576Z,7.65
2022-08-16T08:57:48.138Z,8.00
2022-08-16T09:00:17.677Z,7.93
2022-08-16T09:02:52.173Z,7.85
2022-08-16T09:05:20.769Z,7.10
2022-08-16T09:08:00.271Z,9.00
2022-08-16T09:10:29.355Z,8.50
2022-08-16T09:12:57.271Z,7.80
2022-08-16T09:15:24.669Z,10.50
2022-08-16T09:17:56.793Z,9.98
2022-08-16T09:20:25.641Z,9.52
2022-08-16T09:22:53.262Z,9.07
2022-08-16T09:25:26.040Z,9.10
2022-08-16T09:27:57.144Z,9.40
2022-08-16T09:30:33.739Z,12.55
2022-08-16T09:33:06.513Z,10.40
2022-08-16T09:35:34.412Z,12.48
2022-08-16T09:38:05.555Z,12.73
2022-08-16T09:40:42.426Z,11.73
2022-08-16T09:43:21.123Z,10.00
2022-08-16T09:45:59.121Z,9.95
2022-08-16T09:48:44.215Z,10.52
2022-08-16T09:51:13.148Z,11.18
2022-08-16T09:53:41.768Z,11.38
2022-08-16T09:56:15.899Z,13.77
2022-08-16T09:59:03.814Z,9.23
2022-08-16T10:01:33.429Z,11.75
2022-08-16T10:04:02.276Z,10.98
2022-08-16T10:06:33.301Z,14.40
2022-08-16T10:09:05.226Z,11.52
2022-08-16T10:11:53.982Z,11.45
2022-08-16T10:14:24.787Z,11.80
2022-08-16T10:17:02.222Z,13.60
2022-08-16T10:19:31.955Z,11.40
2022-08-16T10:22:05.276Z,11.40
2022-08-16T10:24:32.850Z,11.45
2022-08-16T10:27:22.241Z,12.35
2022-08-16T10:30:01.058Z,10.20
2022-08-16T10:32:33.500Z,11.07
2022-08-16T10:35:03.845Z,10.77
2022-08-16T10:37:32.548Z,10.32
2022-08-16T10:40:06.174Z,12.38
2022-08-16T10:42:53.213Z,9.88
2022-08-16T10:45:20.800Z,14.32
2022-08-16T10:48:00.906Z,14.80
2022-08-16T10:50:31.429Z,11.57
2022-08-16T10:52:59.648Z,13.63
2022-08-16T10:55:44.172Z,13.25
2022-08-16T10:58:17.038Z,12.80
2022-08-16T11:00:46.309Z,13.38
2022-08-16T11:06:05.998Z,12.07
2022-08-16T11:08:36.210Z,14.63
2022-08-16T11:11:11.707Z,16.88
2022-08-16T11:14:10.629Z,13.57
2022-08-16T11:19:22.787Z,13.38
2022-08-16T11:24:43.332Z,14.70
2022-08-16T11:27:23.848Z,14.20
2022-08-16T11:30:00.306Z,13.57
2022-08-16T11:32:33.647Z,12.63
2022-08-16T11:35:10.978Z,13.73
2022-08-16T11:40:32.981Z,11.32
2022-08-16T11:43:04.220Z,13.13
2022-08-16T11:45:33.526Z,11.48
2022-08-16T11:48:02.860Z,12.73
2022-08-16T11:50:33.382Z,14.70
2022-08-16T11:53:05.610Z,13.65
2022-08-16T11:55:38.070Z,14.50
2022-08-16T11:58:07.172Z,15.05
2022-08-16T12:00:51.922Z,14.85
2022-08-16T12:03:25.061Z,18.38
2022-08-16T12:06:02.662Z,18.63
2022-08-16T12:08:30.673Z,15.40
2022-08-16T12:11:02.346Z,16.08
2022-08-16T12:13:30.020Z,15.65
2022-08-16T12:15:57.417Z,13.43
2022-08-16T12:18:24.774Z,16.95
2022-08-16T12:20:52.087Z,15.75
2022-08-16T12:23:22.924Z,17.45
2022-08-16T12:25:51.058Z,20.45
2022-08-16T12:28:36.792Z,17.63
2022-08-16T12:31:06.877Z,17.65
2022-08-16T12:33:44.448Z,20.08
2022-08-16T12:36:14.154Z,17.40
2022-08-16T12:38:48.334Z,15.65
2022-08-16T12:41:24.615Z,16.23
2022-08-16T12:43:53.066Z,18.00
2022-08-16T12:46:24.723Z,14.65
2022-08-16T12:48:58.471Z,13.10
2022-08-16T12:51:58.482Z,15.10
2022-08-16T12:54:20.766Z,16.75
2022-08-16T12:56:48.253Z,13.13
2022-08-16T12:59:20.110Z,13.88
2022-08-16T13:01:50.220Z,17.40
2022-08-16T13:04:20.286Z,14.98
2022-08-16T13:09:26.342Z,16.95
2022-08-16T13:12:04.392Z,17.55
2022-08-16T13:14:37.920Z,15.75
2022-08-16T13:17:07.045Z,16.58
2022-08-16T13:20:05.492Z,14.48
2022-08-16T13:22:22.952Z,15.82
2022-08-16T13:24:51.426Z,14.52
2022-08-16T13:27:18.624Z,12.80
2022-08-16T13:29:57.399Z,13.63
2022-08-16T13:32:40.421Z,16.92
2022-08-16T13:35:11.803Z,14.43
2022-08-16T13:37:39.733Z,12.07
2022-08-16T13:40:09.442Z,15.00
2022-08-16T13:42:47.549Z,14.13
2022-08-16T13:45:16.170Z,13.43
2022-08-16T13:47:43.761Z,10.15
2022-08-16T13:50:12.994Z,12.43
2022-08-16T13:52:40.741Z,16.98
2022-08-16T13:55:17.465Z,15.18
2022-08-16T13:58:35.729Z,13.95
2022-08-16T14:00:34.211Z,13.70
2022-08-16T14:03:02.407Z,16.60
2022-08-16T14:05:29.614Z,16.98
2022-08-16T14:07:56.854Z,13.63
2022-08-16T14:10:24.384Z,14.40
2022-08-16T14:12:52.069Z,15.23
2022-08-16T14:15:20.961Z,14.30
2022-08-16T14:18:16.911Z,13.55
2022-08-16T14:20:35.555Z,13.30
2022-08-16T14:23:06.321Z,14.95
2022-08-16T14:25:33.614Z,15.98
2022-08-16T14:28:00.817Z,12.65
2022-08-16T14:30:28.177Z,13.80
2022-08-16T14:32:56.117Z,15.73
2022-08-16T14:35:36.655Z,14.75
2022-08-16T14:38:17.925Z,15.63
2022-08-16T14:40:51.066Z,20.77
2022-08-16T14:43:22.202Z,16.95
2022-08-16T14:45:50.372Z,16.38
2022-08-16T14:48:25.124Z,13.35
2022-08-16T14:50:53.492Z,16.17
2022-08-16T14:53:21.227Z,20.88
2022-08-16T14:55:49.717Z,21.00
2022-08-16T14:58:19.525Z,22.30
2022-08-16T15:00:47.891Z,13.60
2022-08-16T15:03:18.398Z,16.92
2022-08-16T15:05:48.950Z,20.08
2022-08-16T15:08:21.188Z,17.27
2022-08-16T15:11:04.059Z,16.90
2022-08-16T15:13:31.379Z,15.00
2022-08-16T15:16:02.461Z,16.65
2022-08-16T15:18:31.725Z,18.15
2022-08-16T15:20:59.698Z,17.95
2022-08-16T15:23:27.018Z,11.93
2022-08-16T15:26:02.882Z,17.20
2022-08-16T15:28:32.581Z,17.75
2022-08-16T15:31:03.179Z,14.57
2022-08-16T15:33:32.474Z,16.00
2022-08-16T15:36:00.044Z,18.23
2022-08-16T15:38:56.783Z,14.30
2022-08-16T15:41:34.338Z,15.02
2022-08-16T15:44:05.396Z,12.68
2022-08-16T15:46:55.543Z,14.77
2022-08-16T15:49:25.108Z,15.43
2022-08-16T15:52:03.074Z,15.00
2022-08-16T15:54:32.674Z,13.40
2022-08-16T15:57:11.063Z,12.50
2022-08-16T15:59:48.016Z,17.65
2022-08-16T16:02:16.793Z,15.02
2022-08-16T16:04:55.409Z,15.75
2022-08-16T16:07:22.935Z,16.88
2022-08-16T16:09:53.156Z,15.75
2022-08-16T16:12:50.850Z,19.73
2022-08-16T16:15:09.085Z,21.33
2022-08-16T16:17:36.490Z,22.50
2022-08-16T16:20:08.187Z,26.17
2022-08-16T16:22:43.597Z,23.92
2022-08-16T16:25:11.153Z,29.90
2022-08-16T16:27:38.384Z,30.75
2022-08-16T16:30:32.531Z,28.27
2022-08-16T16:32:58.207Z,23.65
2022-08-16T16:35:29.056Z,20.27
2022-08-16T16:37:59.995Z,17.92
2022-08-16T16:40:32.546Z,16.10
2022-08-16T16:43:01.032Z,16.30
2022-08-16T16:45:34.854Z,15.57
2022-08-16T16:48:12.148Z,18.13
2022-08-16T16:50:40.966Z,16.20
2022-08-16T16:53:17.825Z,17.20
2022-08-16T16:55:51.576Z,15.13
2022-08-16T16:58:43.324Z,15.05
2022-08-16T17:01:12.685Z,19.55
2022-08-16T17:03:41.651Z,13.80
2022-08-16T17:06:10.527Z,21.38
2022-08-16T17:08:41.449Z,13.15
2022-08-16T17:11:10.184Z,15.63
2022-08-16T17:13:38.554Z,14.70
2022-08-16T17:16:06.370Z,16.55
2022-08-16T17:19:16.952Z,17.30
2022-08-16T17:21:23.607Z,15.35
2022-08-16T17:23:59.316Z,15.80
2022-08-16T17:26:30.143Z,21.27
2022-08-16T17:29:02.594Z,14.30
2022-08-16T17:31:43.430Z,16.67
2022-08-16T17:34:29.543Z,18.10
2022-08-16T17:36:59.716Z,19.95
2022-08-16T17:39:30.020Z,16.85
2022-08-16T17:42:01.799Z,15.93
2022-08-16T17:44:29.158Z,13.10
2022-08-16T17:46:56.677Z,17.25
2022-08-16T17:49:23.910Z,14.38
2022-08-16T17:51:51.305Z,14.88
2022-08-16T17:54:30.061Z,15.30
2022-08-16T17:56:58.527Z,16.67
2022-08-16T17:59:28.222Z,15.77
2022-08-16T18:01:56.134Z,19.05
2022-08-16T18:04:49.340Z,15.77
2022-08-16T18:07:11.233Z,18.75
2022-08-16T18:09:40.797Z,22.90
2022-08-16T18:12:41.638Z,19.33
2022-08-16T18:15:03.214Z,22.92
2022-08-16T18:17:31.283Z,18.73
2022-08-16T18:19:58.516Z,16.65
2022-08-16T18:22:30.559Z,16.95
2022-08-16T18:24:58.393Z,19.02
2022-08-16T18:27:27.260Z,18.02
2022-08-16T18:29:54.836Z,15.48
2022-08-16T18:32:24.934Z,16.92
2022-08-16T18:34:54.474Z,17.73
2022-08-16T18:37:22.596Z,19.25
2022-08-16T18:39:50.133Z,14.80
2022-08-16T18:42:17.387Z,17.52
2022-08-16T18:44:45.087Z,23.40
2022-08-16T18:47:12.332Z,23.48
2022-08-16T18:49:39.513Z,24.73
2022-08-16T18:52:06.971Z,22.33
2022-08-16T18:55:01.732Z,20.00
2022-08-16T18:57:22.014Z,25.17
2022-08-16T18:59:49.217Z,25.77
2022-08-16T19:02:57.260Z,29.75
2022-08-16T19:05:13.024Z,32.08
2022-08-16T19:07:40.432Z,28.60
2022-08-16T19:10:08.709Z,28.20
2022-08-16T19:12:38.257Z,29.08
2022-08-16T19:15:11.959Z,28.05
2022-08-16T19:20:10.765Z,20.25
2022-08-16T19:23:01.581Z,24.77
2022-08-16T19:25:39.463Z,22.63
2022-08-16T19:28:21.750Z,20.92
2022-08-16T19:31:01.100Z,16.67
2022-08-16T19:33:28.578Z,14.05
2022-08-16T19:35:55.871Z,14.68
2022-08-16T19:38:23.122Z,14.02
2022-08-16T19:40:50.589Z,16.85
2022-08-16T19:43:18.056Z,12.52
2022-08-16T19:45:46.224Z,13.70
2022-08-16T19:48:14.011Z,17.27
2022-08-16T19:50:41.850Z,11.88
2022-08-16T19:53:12.343Z,15.10
2022-08-16T19:55:47.407Z,17.90
2022-08-16T19:58:18.240Z,17.40
2022-08-16T20:00:47.994Z,17.83
2022-08-16T20:03:20.830Z,20.50
2022-08-16T20:05:49.639Z,22.98
2022-08-16T20:08:17.272Z,28.02
2022-08-16T20:10:45.485Z,27.42
2022-08-16T20:13:17.510Z,27.63
2022-08-16T20:15:45.146Z,23.73
2022-08-16T20:18:24.796Z,24.98
2022-08-16T20:20:53.941Z,28.80
2022-08-16T20:23:24.775Z,26.65
2022-08-16T20:25:55.772Z,28.02
2022-08-16T20:28:45.093Z,23.05
2022-08-16T20:31:11.592Z,20.48
2022-08-16T20:33:38.797Z,20.27
2022-08-16T20:36:06.072Z,20.13
2022-08-16T20:38:35.278Z,25.77
2022-08-16T20:41:02.727Z,22.85
2022-08-16T20:43:29.962Z,24.83
2022-08-16T20:45:57.298Z,22.50
2022-08-16T20:48:24.467Z,26.20
2022-08-16T20:50:51.692Z,23.85
2022-08-16T20:53:18.958Z,22.58
2022-08-16T20:55:46.153Z,22.10
2022-08-16T20:58:13.490Z,19.63
2022-08-16T21:00:41.340Z,21.42
2022-08-16T21:03:09.753Z,17.27
2022-08-16T21:05:37.052Z,16.05
2022-08-16T21:08:10.135Z,15.25
2022-08-16T21:10:52.540Z,14.23
2022-08-16T21:13:21.356Z,17.48
2022-08-16T21:15:49.004Z,15.60
2022-08-16T21:18:16.302Z,21.23
2022-08-16T21:20:43.669Z,23.88
2022-08-16T21:23:11.324Z,22.65
2022-08-16T21:25:45.610Z,23.35
2022-08-16T21:28:41.387Z,21.63
2022-08-16T21:31:13.950Z,19.73
2022-08-16T21:33:42.733Z,20.23
2022-08-16T21:36:10.400Z,18.38
2022-08-16T21:38:37.575Z,14.98
2022-08-16T21:41:05.778Z,14.43
2022-08-16T21:43:33.663Z,17.88
2022-08-16T21:46:05.014Z,15.68
2022-08-16T21:48:35.092Z,16.88
2022-08-16T21:53:30.373Z,14.25
2022-08-16T21:55:58.889Z,15.70
2022-08-16T21:58:26.413Z,15.85
2022-08-16T22:00:54.134Z,18.45
2022-08-16T22:03:21.855Z,14.00
2022-08-16T22:06:12.620Z,16.15
2022-08-16T22:08:49.011Z,18.77
2022-08-16T22:11:18.940Z,16.45
2022-08-16T22:13:51.143Z,15.45
2022-08-16T22:16:26.187Z,20.05
2022-08-16T22:18:53.543Z,18.95
2022-08-16T22:21:21.054Z,17.80
2022-08-16T22:23:57.199Z,18.27
2022-08-16T22:26:29.817Z,17.63
2022-08-16T22:28:59.000Z,16.73
2022-08-16T22:31:27.488Z,19.15
2022-08-16T22:33:56.628Z,15.40
2022-08-16T22:36:24.048Z,16.63
2022-08-16T22:41:25.552Z,17.75
2022-08-16T22:43:53.004Z,17.42
2022-08-16T22:46:20.965Z,18.17
2022-08-16T22:48:50.402Z,16.33
2022-08-16T22:51:18.541Z,17.08
2022-08-16T22:53:45.844Z,15.75
2022-08-16T22:56:13.045Z,18.08
2022-08-16T22:58:40.291Z,21.20
2022-08-16T23:01:09.801Z,20.98
2022-08-16T23:03:37.837Z,18.98
2022-08-16T23:06:05.870Z,17.85
2022-08-16T23:08:39.247Z,19.02
2022-08-16T23:11:12.760Z,15.93
2022-08-16T23:13:51.522Z,13.80
2022-08-16T23:18:49.585Z,15.35
2022-08-16T23:21:18.094Z,19.65
2022-08-16T23:23:49.027Z,20.02
2022-08-16T23:26:46.192Z,19.95
2022-08-16T23:29:05.344Z,25.25
2022-08-16T23:31:34.091Z,25.58
2022-08-16T23:34:01.351Z,26.83
2022-08-16T23:36:28.509Z,25.50
2022-08-16T23:38:55.748Z,24.50
2022-08-16T23:41:23.823Z,22.08
2022-08-16T23:43:52.064Z,22.80
2022-08-16T23:46:19.825Z,17.35
2022-08-16T23:50:01.701Z,18.08
2022-08-16T23:51:34.760Z,16.55
2022-08-16T23:54:02.329Z,19.17
2022-08-16T23:56:32.059Z,16.50
2022-08-16T23:59:06.297Z,17.10
